createdAt,value
2019-04-03T00:00:32.810Z,74.45
2019-04-03T00:02:59.824Z,74.36
2019-04-03T00:05:26.101Z,74.27
2019-04-03T00:07:52.380Z,74.25
2019-04-03T00:10:18.961Z,74.28
2019-04-03T00:12:45.207Z,74.56
2019-04-03T00:15:13.740Z,74.81
2019-04-03T00:17:40.246Z,75.07
2019-04-03T00:20:06.378Z,74.80
2019-04-03T00:22:32.722Z,74.75
2019-04-03T00:24:59.352Z,74.65
2019-04-03T00:27:25.494Z,74.59
2019-04-03T00:29:52.171Z,74.44
2019-04-03T00:32:19.315Z,74.65
2019-04-03T00:34:45.558Z,75.26
2019-04-03T00:37:11.843Z,75.55
2019-04-03T00:39:38.321Z,75.89
2019-04-03T00:42:04.509Z,76.05
2019-04-03T00:44:30.739Z,75.77
2019-04-03T00:46:57.394Z,75.80
2019-04-03T00:49:24.429Z,76.20
2019-04-03T00:51:51.587Z,76.24
2019-04-03T00:54:17.965Z,76.71
2019-04-03T00:56:44.270Z,76.76
2019-04-03T00:59:10.462Z,77.09
2019-04-03T01:01:36.982Z,77.69
2019-04-03T01:04:03.500Z,77.97
2019-04-03T01:06:29.739Z,77.95
2019-04-03T01:08:55.903Z,78.47
2019-04-03T01:11:23.786Z,78.71
2019-04-03T01:13:50.026Z,78.60
2019-04-03T01:16:17.152Z,79.18
2019-04-03T01:18:43.531Z,79.65
2019-04-03T01:21:09.985Z,79.96
2019-04-03T01:23:38.002Z,80.02
2019-04-03T01:26:04.432Z,80.05
2019-04-03T01:28:31.201Z,79.96
2019-04-03T01:30:57.846Z,80.34
2019-04-03T01:33:24.173Z,80.61
2019-04-03T01:35:50.635Z,81.16
2019-04-03T01:38:17.808Z,81.23
2019-04-03T01:40:45.319Z,81.38
2019-04-03T01:43:11.557Z,81.26
2019-04-03T01:45:38.142Z,81.00
2019-04-03T01:48:04.430Z,81.25
2019-04-03T01:50:30.657Z,81.20
2019-04-03T01:52:57.337Z,81.49
2019-04-03T01:55:23.472Z,81.56
2019-04-03T01:57:49.629Z,81.51
2019-04-03T02:00:16.274Z,81.77
2019-04-03T02:02:44.597Z,81.94
2019-04-03T02:05:13.327Z,82.01
2019-04-03T02:07:41.089Z,81.76
2019-04-03T02:10:19.177Z,81.83
2019-04-03T02:12:45.902Z,81.83
2019-04-03T02:15:12.264Z,81.92
2019-04-03T02:17:38.426Z,81.94
2019-04-03T02:20:05.096Z,82.21
2019-04-03T02:22:31.464Z,82.26
2019-04-03T02:24:57.748Z,82.36
2019-04-03T02:27:24.224Z,82.73
2019-04-03T02:29:50.723Z,82.89
2019-04-03T02:32:16.848Z,82.77
2019-04-03T02:34:43.113Z,82.90
2019-04-03T02:37:09.286Z,82.67
2019-04-03T02:39:35.811Z,82.91
2019-04-03T02:42:02.245Z,82.69
2019-04-03T02:44:28.475Z,82.85
2019-04-03T02:46:55.424Z,83.04
2019-04-03T02:49:23.248Z,82.90
2019-04-03T02:51:53.015Z,83.20
2019-04-03T02:54:26.844Z,83.83
2019-04-03T02:56:53.688Z,84.21
2019-04-03T02:59:19.924Z,84.22
2019-04-03T03:01:46.634Z,84.56
2019-04-03T03:04:12.815Z,84.83
2019-04-03T03:06:39.251Z,84.71
2019-04-03T03:09:05.621Z,84.60
2019-04-03T03:11:31.889Z,84.49
2019-04-03T03:13:58.959Z,84.69
2019-04-03T03:16:26.042Z,84.62
2019-04-03T03:18:52.674Z,84.57
2019-04-03T03:21:19.355Z,84.33
2019-04-03T03:23:46.077Z,84.20
2019-04-03T03:26:12.428Z,84.00
2019-04-03T03:28:38.863Z,83.72
2019-04-03T03:31:07.498Z,83.58
2019-04-03T03:33:37.375Z,83.99
2019-04-03T03:36:04.725Z,83.69
2019-04-03T03:38:31.586Z,82.93
2019-04-03T03:40:58.100Z,82.73
2019-04-03T03:43:24.577Z,82.49
2019-04-03T03:45:53.988Z,82.51
2019-04-03T03:48:20.768Z,82.72
2019-04-03T03:50:50.525Z,83.30
2019-04-03T03:53:17.234Z,83.41
2019-04-03T03:55:43.685Z,83.54
2019-04-03T03:58:12.449Z,83.79
2019-04-03T04:00:39.809Z,83.84
2019-04-03T04:03:08.626Z,83.88
2019-04-03T04:05:34.396Z,84.08
2019-04-03T04:08:01.117Z,84.13
2019-04-03T04:10:27.909Z,84.11
2019-04-03T04:12:54.629Z,84.04
2019-04-03T04:15:22.318Z,83.93
2019-04-03T04:17:51.133Z,83.90
2019-04-03T04:20:17.044Z,84.08
2019-04-03T04:22:44.034Z,84.04
2019-04-03T04:25:10.476Z,83.95
2019-04-03T04:27:39.102Z,83.94
2019-04-03T04:30:06.299Z,83.93
2019-04-03T04:32:32.576Z,84.14
2019-04-03T04:34:59.126Z,84.23
2019-04-03T04:37:26.454Z,84.38
2019-04-03T04:39:53.268Z,84.63
2019-04-03T04:42:19.553Z,84.66
2019-04-03T04:44:45.802Z,84.91
2019-04-03T04:47:14.546Z,84.89
2019-04-03T04:49:40.056Z,85.14
2019-04-03T04:52:06.747Z,85.10
2019-04-03T04:54:33.311Z,85.50
2019-04-03T04:56:59.832Z,85.82
2019-04-03T04:59:26.500Z,85.98
2019-04-03T05:01:52.722Z,85.94
2019-04-03T05:04:19.504Z,86.93
2019-04-03T05:06:45.924Z,87.35
2019-04-03T05:09:12.233Z,87.61
2019-04-03T05:11:39.126Z,88.20
2019-04-03T05:14:06.137Z,88.06
2019-04-03T05:16:32.402Z,88.52
2019-04-03T05:19:09.004Z,88.99
2019-04-03T05:21:27.152Z,89.78
2019-04-03T05:23:55.766Z,90.27
2019-04-03T05:26:21.897Z,90.38
2019-04-03T05:28:57.088Z,91.13
2019-04-03T05:31:18.832Z,91.83
2019-04-03T05:33:45.105Z,92.07
2019-04-03T05:36:11.714Z,92.92
2019-04-03T05:38:38.549Z,93.07
2019-04-03T05:41:06.260Z,94.24
2019-04-03T05:43:32.797Z,94.62
2019-04-03T05:45:59.029Z,94.99
2019-04-03T05:48:25.209Z,95.83
2019-04-03T05:50:51.466Z,95.81
2019-04-03T05:53:17.830Z,95.95
2019-04-03T05:55:44.173Z,96.12
2019-04-03T05:58:10.653Z,96.49
2019-04-03T06:00:38.173Z,96.82
2019-04-03T06:03:05.054Z,96.75
2019-04-03T06:05:31.392Z,96.73
2019-04-03T06:07:57.626Z,96.34
2019-04-03T06:10:23.765Z,96.81
2019-04-03T06:12:50.517Z,96.85
2019-04-03T06:15:16.640Z,97.05
2019-04-03T06:17:43.036Z,96.75
2019-04-03T06:20:11.240Z,96.68
2019-04-03T06:22:37.757Z,96.58
2019-04-03T06:25:05.698Z,96.49
2019-04-03T06:27:32.446Z,96.34
2019-04-03T06:29:58.606Z,96.13
2019-04-03T06:32:25.075Z,96.14
2019-04-03T06:34:52.118Z,96.38
2019-04-03T06:37:18.281Z,96.62
2019-04-03T06:39:45.720Z,95.99
2019-04-03T06:42:13.268Z,96.62
2019-04-03T06:44:40.032Z,96.83
2019-04-03T06:47:06.299Z,95.78
2019-04-03T06:49:32.970Z,94.89
2019-04-03T06:51:59.314Z,94.56
2019-04-03T06:54:25.454Z,93.94
2019-04-03T06:56:52.955Z,94.39
2019-04-03T06:59:19.496Z,94.41
2019-04-03T07:01:45.715Z,93.73
2019-04-03T07:04:12.425Z,93.95
2019-04-03T07:06:38.616Z,93.65
2019-04-03T07:09:06.282Z,94.09
2019-04-03T07:11:32.761Z,94.16
2019-04-03T07:13:59.175Z,94.43
2019-04-03T07:16:28.123Z,95.61
2019-04-03T07:18:53.824Z,95.79
2019-04-03T07:21:20.678Z,95.84
2019-04-03T07:23:48.091Z,95.76
2019-04-03T07:26:15.193Z,96.73
2019-04-03T07:28:42.345Z,97.57
2019-04-03T07:31:08.686Z,98.21
2019-04-03T07:33:35.015Z,98.79
2019-04-03T07:36:01.567Z,99.55
2019-04-03T07:38:27.966Z,99.37
2019-04-03T07:40:54.520Z,100.00
2019-04-03T07:43:20.815Z,99.94
2019-04-03T07:45:47.169Z,100.00
2019-04-03T07:48:13.337Z,100.00
2019-04-03T07:50:41.637Z,100.00
2019-04-03T07:53:07.828Z,100.00
2019-04-03T07:55:34.615Z,100.00
2019-04-03T07:58:01.570Z,100.00
2019-04-03T08:00:28.478Z,100.00
2019-04-03T08:02:55.262Z,100.00
2019-04-03T08:05:21.455Z,100.00
2019-04-03T08:07:47.898Z,100.00
2019-04-03T08:10:14.405Z,100.00
2019-04-03T08:12:40.961Z,100.00
2019-04-03T08:15:07.408Z,100.00
2019-04-03T08:17:33.692Z,100.00
2019-04-03T08:20:00.096Z,100.00
2019-04-03T08:22:26.759Z,100.00
2019-04-03T08:24:53.863Z,100.00
2019-04-03T08:27:22.813Z,100.00
2019-04-03T08:29:48.861Z,98.31
2019-04-03T08:32:16.181Z,97.54
2019-04-03T08:34:43.403Z,97.49
2019-04-03T08:37:10.750Z,96.18
2019-04-03T08:39:37.344Z,95.72
2019-04-03T08:42:04.017Z,94.22
2019-04-03T08:44:30.298Z,92.32
2019-04-03T08:46:56.659Z,91.90
2019-04-03T08:49:25.780Z,89.60
2019-04-03T08:51:51.884Z,89.59
2019-04-03T08:54:18.294Z,89.77
2019-04-03T08:56:44.839Z,91.34
2019-04-03T08:59:12.917Z,91.20
2019-04-03T09:01:39.447Z,92.30
2019-04-03T09:04:05.697Z,93.90
2019-04-03T09:06:32.086Z,96.12
2019-04-03T09:08:58.721Z,97.23
2019-04-03T09:11:25.814Z,97.85
2019-04-03T09:13:54.384Z,98.84
2019-04-03T09:16:20.268Z,98.88
2019-04-03T09:18:46.740Z,98.31
2019-04-03T09:21:15.156Z,98.57
2019-04-03T09:23:41.122Z,97.77
2019-04-03T09:26:07.780Z,97.93
2019-04-03T09:28:34.245Z,97.64
2019-04-03T09:31:00.560Z,98.09
2019-04-03T09:33:29.385Z,94.02
2019-04-03T09:35:58.395Z,91.12
2019-04-03T09:38:23.287Z,92.27
2019-04-03T09:40:49.854Z,89.75
2019-04-03T09:43:16.021Z,90.81
2019-04-03T09:45:42.816Z,88.33
2019-04-03T09:48:11.660Z,85.57
2019-04-03T09:50:37.438Z,83.80
2019-04-03T09:53:03.651Z,85.13
2019-04-03T09:55:35.461Z,86.21
2019-04-03T09:57:58.726Z,86.57
2019-04-03T10:00:25.388Z,84.23
2019-04-03T10:02:52.023Z,80.56
2019-04-03T10:05:18.362Z,80.36
2019-04-03T10:07:44.905Z,79.84
2019-04-03T10:10:11.785Z,81.14
2019-04-03T10:12:38.062Z,81.88
2019-04-03T10:15:08.039Z,80.91
2019-04-03T10:17:36.639Z,80.06
2019-04-03T10:20:06.383Z,79.89
2019-04-03T10:22:32.928Z,79.70
2019-04-03T10:25:00.542Z,80.14
2019-04-03T10:27:27.025Z,80.69
2019-04-03T10:29:55.697Z,80.26
2019-04-03T10:32:25.054Z,79.93
2019-04-03T10:34:51.376Z,82.31
2019-04-03T10:37:17.930Z,81.75
2019-04-03T10:39:44.922Z,81.92
2019-04-03T10:42:11.433Z,81.53
2019-04-03T10:44:37.776Z,82.00
2019-04-03T10:47:04.161Z,81.88
2019-04-03T10:49:32.473Z,81.54
2019-04-03T10:51:58.866Z,80.34
2019-04-03T10:54:25.794Z,80.06
2019-04-03T10:56:52.112Z,80.33
2019-04-03T10:59:19.113Z,78.82
2019-04-03T11:01:45.644Z,80.87
2019-04-03T11:04:12.144Z,79.93
2019-04-03T11:06:38.885Z,81.65
2019-04-03T11:09:07.032Z,83.25
2019-04-03T11:11:33.394Z,81.79
2019-04-03T11:14:02.270Z,82.32
2019-04-03T11:16:28.031Z,81.72
2019-04-03T11:18:59.946Z,81.33
2019-04-03T11:21:22.787Z,81.17
2019-04-03T11:23:49.224Z,80.50
2019-04-03T11:26:17.660Z,81.54
2019-04-03T11:28:44.212Z,80.93
2019-04-03T11:31:10.729Z,81.50
2019-04-03T11:33:37.080Z,80.92
2019-04-03T11:36:03.706Z,79.63
2019-04-03T11:38:30.028Z,79.72
2019-04-03T11:40:56.534Z,81.04
2019-04-03T11:43:23.156Z,80.20
2019-04-03T11:45:49.799Z,80.54
2019-04-03T11:48:17.247Z,79.94
2019-04-03T11:50:44.362Z,79.11
2019-04-03T11:53:10.644Z,78.79
2019-04-03T11:55:36.829Z,77.40
2019-04-03T11:58:03.578Z,78.21
2019-04-03T12:00:32.045Z,79.67
2019-04-03T12:02:58.761Z,80.81
2019-04-03T12:05:25.130Z,82.26
2019-04-03T12:07:51.326Z,82.10
2019-04-03T12:10:17.976Z,81.47
2019-04-03T12:12:44.803Z,81.21
2019-04-03T12:15:15.056Z,81.23
2019-04-03T12:17:40.166Z,80.61
2019-04-03T12:20:09.183Z,79.29
2019-04-03T12:22:35.669Z,77.90
2019-04-03T12:25:02.802Z,78.24
2019-04-03T12:27:29.525Z,77.75
2019-04-03T12:29:56.156Z,78.80
2019-04-03T12:32:36.107Z,74.20
2019-04-03T12:34:51.996Z,75.27
2019-04-03T12:37:19.556Z,73.61
2019-04-03T12:39:46.871Z,71.97
2019-04-03T12:42:13.142Z,71.94
2019-04-03T12:44:39.903Z,68.24
2019-04-03T12:47:12.196Z,67.46
2019-04-03T12:49:34.707Z,68.11
2019-04-03T12:52:03.634Z,67.37
2019-04-03T12:54:29.375Z,66.10
2019-04-03T12:57:00.263Z,65.66
2019-04-03T12:59:26.101Z,65.73
2019-04-03T13:01:52.885Z,65.49
2019-04-03T13:04:19.028Z,64.98
2019-04-03T13:06:45.747Z,61.49
2019-04-03T13:09:12.199Z,61.09
2019-04-03T13:11:46.435Z,61.58
2019-04-03T13:14:22.631Z,59.35
2019-04-03T13:16:41.846Z,61.28
2019-04-03T13:19:08.339Z,60.01
2019-04-03T13:21:34.991Z,58.69
2019-04-03T13:24:02.062Z,60.96
2019-04-03T13:26:28.400Z,58.90
2019-04-03T13:28:54.700Z,60.32
2019-04-03T13:31:21.046Z,61.25
2019-04-03T13:33:47.237Z,59.90
2019-04-03T13:36:13.718Z,60.73
2019-04-03T13:38:40.214Z,62.80
2019-04-03T13:41:08.011Z,63.17
2019-04-03T13:43:34.743Z,63.35
2019-04-03T13:46:03.916Z,64.12
2019-04-03T13:48:29.724Z,62.50
2019-04-03T13:50:56.222Z,60.70
2019-04-03T13:53:25.401Z,60.85
2019-04-03T13:55:51.173Z,61.93
2019-04-03T13:58:20.554Z,61.93
2019-04-03T14:00:57.642Z,63.27
2019-04-03T14:03:17.619Z,63.27
2019-04-03T14:05:43.440Z,64.34
2019-04-03T14:08:12.237Z,64.34
2019-04-03T14:10:38.739Z,63.47
2019-04-03T14:13:04.981Z,64.80
2019-04-03T14:15:31.259Z,65.07
2019-04-03T14:17:59.127Z,66.81
2019-04-03T14:20:27.963Z,66.71
2019-04-03T14:22:54.357Z,68.28
2019-04-03T14:25:23.774Z,69.02
2019-04-03T14:27:50.046Z,68.89
2019-04-03T14:30:21.587Z,68.51
2019-04-03T14:32:52.840Z,69.32
2019-04-03T14:37:49.845Z,68.87
2019-04-03T14:40:21.092Z,69.88
2019-04-03T14:42:48.105Z,70.55
2019-04-03T14:45:16.946Z,70.76
2019-04-03T14:47:43.650Z,71.19
2019-04-03T14:50:10.289Z,71.89
2019-04-03T14:52:36.657Z,71.71
2019-04-03T14:55:17.135Z,70.86
2019-04-03T14:57:33.446Z,72.42
2019-04-03T15:00:02.046Z,71.62
2019-04-03T15:02:29.032Z,68.28
2019-04-03T15:04:55.448Z,68.73
2019-04-03T15:07:22.034Z,69.30
2019-04-03T15:09:48.518Z,70.96
2019-04-03T15:12:14.737Z,71.16
2019-04-03T15:14:41.411Z,69.20
2019-04-03T15:17:07.550Z,66.38
2019-04-03T15:19:33.845Z,66.30
2019-04-03T15:22:02.112Z,65.48
2019-04-03T15:24:29.057Z,66.59
2019-04-03T15:26:55.309Z,63.82
2019-04-03T15:29:21.624Z,62.60
2019-04-03T15:31:48.097Z,61.49
2019-04-03T15:34:14.380Z,61.87
2019-04-03T15:36:40.661Z,61.67
2019-04-03T15:39:09.325Z,61.26
2019-04-03T15:41:35.799Z,60.84
2019-04-03T15:44:02.711Z,61.72
2019-04-03T15:46:30.020Z,60.83
2019-04-03T15:48:56.369Z,60.69
2019-04-03T15:51:23.114Z,60.78
2019-04-03T15:53:49.530Z,60.18
2019-04-03T15:56:15.838Z,59.81
2019-04-03T15:58:42.299Z,60.47
2019-04-03T16:01:09.279Z,61.37
2019-04-03T16:03:35.549Z,61.01
2019-04-03T16:06:03.487Z,63.79
2019-04-03T16:08:30.360Z,64.27
2019-04-03T16:10:58.374Z,64.45
2019-04-03T16:13:25.031Z,64.68
2019-04-03T16:15:54.786Z,65.66
2019-04-03T16:18:20.652Z,66.70
2019-04-03T16:20:49.042Z,68.16
2019-04-03T16:23:18.287Z,68.45
2019-04-03T16:25:45.011Z,68.54
2019-04-03T16:28:13.003Z,69.41
2019-04-03T16:30:40.426Z,69.25
2019-04-03T16:33:18.978Z,68.72
2019-04-03T16:35:35.937Z,68.79
2019-04-03T16:38:02.360Z,69.59
2019-04-03T16:40:31.223Z,70.08
2019-04-03T16:42:57.667Z,70.59
2019-04-03T16:45:24.273Z,71.06
2019-04-03T16:47:50.604Z,71.81
2019-04-03T16:50:17.636Z,72.37
2019-04-03T16:52:46.789Z,72.19
2019-04-03T16:55:13.825Z,72.76
2019-04-03T16:57:40.972Z,73.11
2019-04-03T17:00:09.907Z,73.37
2019-04-03T17:02:38.244Z,73.78
2019-04-03T17:05:05.290Z,74.26
2019-04-03T17:07:31.459Z,74.85
2019-04-03T17:09:57.981Z,75.33
2019-04-03T17:12:24.159Z,75.69
2019-04-03T17:14:50.918Z,76.14
2019-04-03T17:17:17.364Z,76.94
2019-04-03T17:19:43.587Z,77.38
2019-04-03T17:22:09.871Z,77.80
2019-04-03T17:24:42.795Z,78.11
2019-04-03T17:27:04.607Z,78.24
2019-04-03T17:29:30.794Z,78.55
2019-04-03T17:31:58.655Z,78.89
2019-04-03T17:34:25.072Z,79.11
2019-04-03T17:36:52.629Z,79.48
2019-04-03T17:39:20.035Z,79.96
2019-04-03T17:41:46.245Z,80.51
2019-04-03T17:44:13.967Z,80.82
2019-04-03T17:46:40.859Z,81.03
2019-04-03T17:49:07.029Z,81.13
2019-04-03T17:51:33.568Z,81.88
2019-04-03T17:54:00.767Z,82.61
2019-04-03T17:56:26.931Z,82.96
2019-04-03T17:58:53.305Z,83.03
2019-04-03T18:01:22.168Z,83.67
2019-04-03T18:03:49.684Z,84.05
2019-04-03T18:06:18.488Z,84.53
2019-04-03T18:08:44.907Z,85.24
2019-04-03T18:11:13.133Z,85.63
2019-04-03T18:13:39.267Z,85.94
2019-04-03T18:16:05.929Z,86.01
2019-04-03T18:18:33.383Z,86.51
2019-04-03T18:21:00.232Z,87.13
2019-04-03T18:23:26.719Z,87.44
2019-04-03T18:25:52.864Z,87.73
2019-04-03T18:28:21.005Z,88.01
2019-04-03T18:30:47.730Z,88.63
2019-04-03T18:33:16.582Z,88.98
2019-04-03T18:35:42.125Z,88.94
2019-04-03T18:38:08.670Z,89.16
2019-04-03T18:40:35.063Z,89.73
2019-04-03T18:43:01.297Z,89.91
2019-04-03T18:45:27.685Z,90.17
2019-04-03T18:47:55.979Z,90.52
2019-04-03T18:50:22.671Z,90.39
2019-04-03T18:52:48.935Z,90.43
2019-04-03T18:55:15.248Z,90.58
2019-04-03T18:57:41.399Z,90.53
2019-04-03T19:00:08.097Z,90.31
2019-04-03T19:02:35.122Z,90.40
2019-04-03T19:05:02.663Z,90.79
2019-04-03T19:07:28.908Z,90.91
2019-04-03T19:10:06.457Z,91.06
2019-04-03T19:12:34.914Z,91.30
2019-04-03T19:14:51.704Z,91.64
2019-04-03T19:17:17.886Z,91.60
2019-04-03T19:19:44.391Z,92.02
2019-04-03T19:22:10.805Z,91.98
2019-04-03T19:24:37.078Z,91.70
2019-04-03T19:27:03.577Z,91.61
2019-04-03T19:29:29.752Z,91.75
2019-04-03T19:31:56.041Z,92.25
2019-04-03T19:34:22.545Z,93.23
2019-04-03T19:36:48.929Z,93.28
2019-04-03T19:39:15.112Z,93.29
2019-04-03T19:41:42.717Z,93.63
2019-04-03T19:44:09.509Z,93.99
2019-04-03T19:46:35.774Z,94.16
2019-04-03T19:49:02.417Z,94.72
2019-04-03T19:51:28.574Z,94.84
2019-04-03T19:53:59.522Z,95.07
2019-04-03T19:56:25.759Z,95.33
2019-04-03T19:58:51.283Z,95.51
2019-04-03T20:01:17.557Z,95.98
2019-04-03T20:03:44.307Z,96.40
2019-04-03T20:06:11.294Z,96.38
2019-04-03T20:08:37.425Z,96.29
2019-04-03T20:11:05.132Z,96.29
2019-04-03T20:13:31.957Z,96.28
2019-04-03T20:15:58.134Z,97.64
2019-04-03T20:18:25.999Z,98.58
2019-04-03T20:20:52.541Z,98.00
2019-04-03T20:23:18.817Z,97.00
2019-04-03T20:25:46.016Z,95.74
2019-04-03T20:28:13.139Z,94.60
2019-04-03T20:30:39.770Z,94.42
2019-04-03T20:33:06.091Z,94.83
2019-04-03T20:35:34.234Z,95.22
2019-04-03T20:38:00.568Z,95.78
2019-04-03T20:40:26.859Z,95.41
2019-04-03T20:42:53.065Z,96.65
2019-04-03T20:45:19.756Z,97.16
2019-04-03T20:47:48.238Z,97.92
2019-04-03T20:50:16.155Z,98.66
2019-04-03T20:52:45.794Z,98.89
2019-04-03T20:55:11.107Z,99.81
2019-04-03T20:57:37.263Z,99.80
2019-04-03T21:00:09.913Z,99.29
2019-04-03T21:02:36.100Z,98.93
2019-04-03T21:05:03.884Z,98.52
2019-04-03T21:07:30.357Z,98.27
2019-04-03T21:09:56.613Z,97.94
2019-04-03T21:12:22.798Z,98.32
2019-04-03T21:14:49.457Z,98.39
2019-04-03T21:17:18.598Z,98.17
2019-04-03T21:19:43.854Z,99.22
2019-04-03T21:22:10.573Z,100.00
2019-04-03T21:24:36.776Z,100.00
2019-04-03T21:27:03.353Z,100.00
2019-04-03T21:29:29.624Z,100.00
2019-04-03T21:31:56.747Z,100.00
2019-04-03T21:34:23.807Z,100.00
2019-04-03T21:36:50.475Z,100.00
2019-04-03T21:39:16.918Z,100.00
2019-04-03T21:41:43.571Z,100.00
2019-04-03T21:44:09.922Z,100.00
2019-04-03T21:46:36.265Z,100.00
2019-04-03T21:49:04.308Z,100.00
2019-04-03T21:51:30.765Z,100.00
2019-04-03T21:53:56.987Z,100.00
2019-04-03T21:56:23.142Z,100.00
2019-04-03T21:58:49.578Z,100.00
2019-04-03T22:01:20.149Z,100.00
2019-04-03T22:03:46.435Z,100.00
2019-04-03T22:06:13.792Z,100.00
2019-04-03T22:08:40.090Z,100.00
2019-04-03T22:11:06.596Z,100.00
2019-04-03T22:13:33.015Z,100.00
2019-04-03T22:15:59.307Z,100.00
2019-04-03T22:18:25.452Z,100.00
2019-04-03T22:20:52.020Z,100.00
2019-04-03T22:23:18.341Z,100.00
2019-04-03T22:25:44.628Z,100.00
2019-04-03T22:28:13.212Z,100.00
2019-04-03T22:30:39.984Z,100.00
2019-04-03T22:33:06.244Z,100.00
2019-04-03T22:35:32.934Z,100.00
2019-04-03T22:37:59.477Z,100.00
2019-04-03T22:40:25.720Z,100.00
2019-04-03T22:42:52.697Z,100.00
2019-04-03T22:45:20.112Z,100.00
2019-04-03T22:47:47.688Z,100.00
2019-04-03T22:50:14.327Z,100.00
2019-04-03T22:52:40.586Z,100.00
2019-04-03T22:55:06.865Z,100.00
2019-04-03T22:57:33.477Z,100.00
2019-04-03T22:59:59.931Z,100.00
2019-04-03T23:02:26.320Z,100.00
2019-04-03T23:04:52.713Z,100.00
2019-04-03T23:07:20.873Z,100.00
2019-04-03T23:09:46.939Z,100.00
2019-04-03T23:12:13.739Z,100.00
2019-04-03T23:14:40.078Z,100.00
2019-04-03T23:17:06.404Z,100.00
2019-04-03T23:19:32.663Z,100.00
2019-04-03T23:21:59.011Z,100.00
2019-04-03T23:24:28.532Z,100.00
2019-04-03T23:26:53.584Z,100.00
2019-04-03T23:29:19.884Z,100.00
2019-04-03T23:31:46.544Z,100.00
2019-04-03T23:34:12.844Z,100.00
2019-04-03T23:36:39.129Z,100.00
2019-04-03T23:39:06.912Z,100.00
2019-04-03T23:41:36.357Z,100.00
2019-04-03T23:44:01.763Z,100.00
2019-04-03T23:46:28.347Z,100.00
2019-04-03T23:48:54.594Z,100.00
2019-04-03T23:51:23.537Z,100.00
2019-04-03T23:53:49.599Z,100.00
2019-04-03T23:56:15.983Z,100.00
2019-04-03T23:58:42.441Z,100.00
